sensor_id;sensor_type;location;lat;lon;timestamp;pressure;altitude;pressure_sealevel;temperature;humidity
62942;BME280;49042;47.318;19.874;2022-11-15T00:00:05;100944.84;;;4.01;100.00
62942;BME280;49042;47.318;19.874;2022-11-15T00:03:07;100947.00;;;3.95;100.00
62942;BME280;49042;47.318;19.874;2022-11-15T00:06:09;100939.28;;;4.09;100.00
62942;BME280;49042;47.318;19.874;2022-11-15T00:09:10;100941.75;;;4.07;100.00
62942;BME280;49042;47.318;19.874;2022-11-15T00:12:12;100930.03;;;3.85;100.00
62942;BME280;49042;47.318;19.874;2022-11-15T00:15:14;100937.78;;;3.85;100.00
62942;BME280;49042;47.318;19.874;2022-11-15T00:18:16;100945.16;;;3.67;100.00
62942;BME280;49042;47.318;19.874;2022-11-15T00:21:18;100933.28;;;3.82;100.00
62942;BME280;49042;47.318;19.874;2022-11-15T00:24:20;100932.50;;;3.83;100.00
62942;BME280;49042;47.318;19.874;2022-11-15T00:27:21;100931.41;;;3.80;100.00
62942;BME280;49042;47.318;19.874;2022-11-15T00:30:23;100935.56;;;3.78;100.00
62942;BME280;49042;47.318;19.874;2022-11-15T00:33:25;100929.31;;;3.74;100.00
62942;BME280;49042;47.318;19.874;2022-11-15T00:36:27;100936.16;;;3.73;100.00
62942;BME280;49042;47.318;19.874;2022-11-15T00:39:29;100933.56;;;3.73;100.00
62942;BME280;49042;47.318;19.874;2022-11-15T00:42:31;100932.66;;;3.73;100.00
62942;BME280;49042;47.318;19.874;2022-11-15T00:45:32;100927.63;;;3.74;100.00
62942;BME280;49042;47.318;19.874;2022-11-15T00:48:34;100916.31;;;3.86;100.00
62942;BME280;49042;47.318;19.874;2022-11-15T00:51:36;100921.78;;;3.77;100.00
62942;BME280;49042;47.318;19.874;2022-11-15T00:54:38;100927.31;;;3.70;100.00
62942;BME280;49042;47.318;19.874;2022-11-15T00:57:39;100925.34;;;3.79;100.00
62942;BME280;49042;47.318;19.874;2022-11-15T01:00:41;100918.59;;;3.81;100.00
62942;BME280;49042;47.318;19.874;2022-11-15T01:03:43;100905.47;;;3.78;100.00
62942;BME280;49042;47.318;19.874;2022-11-15T01:06:45;100909.34;;;3.71;100.00
62942;BME280;49042;47.318;19.874;2022-11-15T01:09:46;100910.69;;;3.52;100.00
62942;BME280;49042;47.318;19.874;2022-11-15T01:12:48;100906.53;;;3.55;100.00
62942;BME280;49042;47.318;19.874;2022-11-15T01:15:50;100899.75;;;3.43;100.00
62942;BME280;49042;47.318;19.874;2022-11-15T01:18:52;100896.22;;;3.55;100.00
62942;BME280;49042;47.318;19.874;2022-11-15T01:21:53;100899.69;;;3.55;100.00
62942;BME280;49042;47.318;19.874;2022-11-15T01:24:55;100901.81;;;3.35;100.00
62942;BME280;49042;47.318;19.874;2022-11-15T01:27:57;100892.31;;;3.48;100.00
62942;BME280;49042;47.318;19.874;2022-11-15T01:31:03;100887.81;;;3.31;100.00
62942;BME280;49042;47.318;19.874;2022-11-15T01:34:05;100890.06;;;3.27;100.00
62942;BME280;49042;47.318;19.874;2022-11-15T01:37:07;100896.72;;;3.23;100.00
62942;BME280;49042;47.318;19.874;2022-11-15T01:40:09;100888.88;;;3.21;100.00
62942;BME280;49042;47.318;19.874;2022-11-15T01:43:28;100891.28;;;3.06;100.00
62942;BME280;49042;47.318;19.874;2022-11-15T01:46:34;100883.84;;;3.11;100.00
62942;BME280;49042;47.318;19.874;2022-11-15T01:49:39;100886.44;;;3.11;100.00
62942;BME280;49042;47.318;19.874;2022-11-15T01:52:42;100878.13;;;3.15;100.00
62942;BME280;49042;47.318;19.874;2022-11-15T01:55:44;100885.81;;;3.02;100.00
62942;BME280;49042;47.318;19.874;2022-11-15T01:58:46;100883.97;;;3.13;100.00
62942;BME280;49042;47.318;19.874;2022-11-15T02:01:48;100881.22;;;2.97;100.00
62942;BME280;49042;47.318;19.874;2022-11-15T02:04:49;100871.25;;;3.02;100.00
62942;BME280;49042;47.318;19.874;2022-11-15T02:07:51;100866.50;;;3.08;100.00
62942;BME280;49042;47.318;19.874;2022-11-15T02:10:53;100857.37;;;3.00;100.00
62942;BME280;49042;47.318;19.874;2022-11-15T02:13:55;100864.50;;;3.04;100.00
62942;BME280;49042;47.318;19.874;2022-11-15T02:17:16;100862.22;;;3.21;100.00
62942;BME280;49042;47.318;19.874;2022-11-15T02:20:43;100855.78;;;3.02;100.00
62942;BME280;49042;47.318;19.874;2022-11-15T02:30:52;100858.91;;;3.10;100.00
62942;BME280;49042;47.318;19.874;2022-11-15T02:38:10;100856.19;;;3.34;100.00
62942;BME280;49042;47.318;19.874;2022-11-15T02:41:06;100850.06;;;3.06;100.00
62942;BME280;49042;47.318;19.874;2022-11-15T02:44:18;100852.94;;;3.11;100.00
62942;BME280;49042;47.318;19.874;2022-11-15T02:47:22;100855.75;;;3.14;100.00
62942;BME280;49042;47.318;19.874;2022-11-15T02:50:28;100846.81;;;3.23;100.00
62942;BME280;49042;47.318;19.874;2022-11-15T02:53:30;100847.56;;;3.34;100.00
62942;BME280;49042;47.318;19.874;2022-11-15T02:56:33;100839.53;;;3.03;100.00
62942;BME280;49042;47.318;19.874;2022-11-15T03:02:56;100846.78;;;3.09;100.00
62942;BME280;49042;47.318;19.874;2022-11-15T03:09:39;100839.28;;;3.26;100.00
62942;BME280;49042;47.318;19.874;2022-11-15T03:12:50;100839.06;;;3.48;100.00
62942;BME280;49042;47.318;19.874;2022-11-15T03:19:25;100840.53;;;3.45;100.00
62942;BME280;49042;47.318;19.874;2022-11-15T03:22:34;100842.81;;;3.53;100.00
62942;BME280;49042;47.318;19.874;2022-11-15T03:25:41;100836.25;;;3.31;100.00
62942;BME280;49042;47.318;19.874;2022-11-15T03:28:50;100835.59;;;3.48;100.00
62942;BME280;49042;47.318;19.874;2022-11-15T03:32:03;100827.63;;;3.05;100.00
62942;BME280;49042;47.318;19.874;2022-11-15T03:35:10;100844.41;;;3.38;100.00
62942;BME280;49042;47.318;19.874;2022-11-15T03:38:21;100835.59;;;3.48;100.00
62942;BME280;49042;47.318;19.874;2022-11-15T03:41:30;100820.06;;;3.20;100.00
62942;BME280;49042;47.318;19.874;2022-11-15T03:44:58;100826.44;;;3.00;100.00
62942;BME280;49042;47.318;19.874;2022-11-15T03:48:10;100823.94;;;3.27;100.00
62942;BME280;49042;47.318;19.874;2022-11-15T03:51:15;100819.84;;;3.17;100.00
62942;BME280;49042;47.318;19.874;2022-11-15T03:54:17;100838.06;;;3.46;100.00
62942;BME280;49042;47.318;19.874;2022-11-15T03:57:19;100819.91;;;3.05;100.00
62942;BME280;49042;47.318;19.874;2022-11-15T04:00:20;100811.25;;;3.30;100.00
62942;BME280;49042;47.318;19.874;2022-11-15T04:03:22;100805.50;;;3.21;100.00
62942;BME280;49042;47.318;19.874;2022-11-15T04:06:24;100798.94;;;3.26;100.00
62942;BME280;49042;47.318;19.874;2022-11-15T04:09:25;100788.28;;;3.08;100.00
62942;BME280;49042;47.318;19.874;2022-11-15T04:12:28;100784.34;;;3.13;100.00
62942;BME280;49042;47.318;19.874;2022-11-15T04:15:32;100799.03;;;3.14;100.00
62942;BME280;49042;47.318;19.874;2022-11-15T04:18:34;100790.25;;;2.98;100.00
62942;BME280;49042;47.318;19.874;2022-11-15T04:21:36;100787.06;;;3.28;100.00
62942;BME280;49042;47.318;19.874;2022-11-15T04:24:56;100789.53;;;3.27;100.00
62942;BME280;49042;47.318;19.874;2022-11-15T04:27:57;100775.84;;;3.28;100.00
62942;BME280;49042;47.318;19.874;2022-11-15T04:30:59;100775.19;;;3.05;100.00
62942;BME280;49042;47.318;19.874;2022-11-15T04:34:01;100766.91;;;3.36;100.00
62942;BME280;49042;47.318;19.874;2022-11-15T04:37:02;100759.19;;;3.23;100.00
62942;BME280;49042;47.318;19.874;2022-11-15T04:40:13;100762.44;;;3.20;100.00
62942;BME280;49042;47.318;19.874;2022-11-15T04:43:15;100770.69;;;3.14;100.00
62942;BME280;49042;47.318;19.874;2022-11-15T04:46:17;100763.41;;;3.08;100.00
62942;BME280;49042;47.318;19.874;2022-11-15T04:49:18;100771.09;;;3.20;100.00
62942;BME280;49042;47.318;19.874;2022-11-15T04:52:20;100770.88;;;3.17;100.00
62942;BME280;49042;47.318;19.874;2022-11-15T04:55:22;100763.53;;;3.10;100.00
62942;BME280;49042;47.318;19.874;2022-11-15T04:58:23;100759.28;;;3.10;100.00
62942;BME280;49042;47.318;19.874;2022-11-15T05:01:25;100764.97;;;3.32;100.00
62942;BME280;49042;47.318;19.874;2022-11-15T05:04:27;100769.41;;;3.35;100.00
62942;BME280;49042;47.318;19.874;2022-11-15T05:07:28;100772.25;;;3.26;100.00
62942;BME280;49042;47.318;19.874;2022-11-15T05:10:54;100767.44;;;3.44;100.00
62942;BME280;49042;47.318;19.874;2022-11-15T05:13:56;100767.44;;;3.44;100.00
62942;BME280;49042;47.318;19.874;2022-11-15T05:16:57;100766.66;;;3.45;100.00
62942;BME280;49042;47.318;19.874;2022-11-15T05:20:00;100755.44;;;3.45;100.00
62942;BME280;49042;47.318;19.874;2022-11-15T05:23:01;100759.37;;;3.39;100.00
62942;BME280;49042;47.318;19.874;2022-11-15T05:26:04;100758.53;;;3.39;100.00
62942;BME280;49042;47.318;19.874;2022-11-15T05:29:09;100759.09;;;3.48;100.00
62942;BME280;49042;47.318;19.874;2022-11-15T05:32:12;100749.37;;;3.44;100.00
62942;BME280;49042;47.318;19.874;2022-11-15T05:35:21;100760.91;;;3.36;100.00
62942;BME280;49042;47.318;19.874;2022-11-15T05:38:26;100768.03;;;3.40;100.00
62942;BME280;49042;47.318;19.874;2022-11-15T05:41:33;100776.06;;;3.45;100.00
62942;BME280;49042;47.318;19.874;2022-11-15T05:44:39;100776.00;;;3.57;100.00
62942;BME280;49042;47.318;19.874;2022-11-15T05:47:43;100763.75;;;3.40;100.00
62942;BME280;49042;47.318;19.874;2022-11-15T05:50:46;100758.53;;;3.52;100.00
62942;BME280;49042;47.318;19.874;2022-11-15T05:53:49;100740.03;;;3.19;100.00
62942;BME280;49042;47.318;19.874;2022-11-15T05:56:53;100750.47;;;3.34;100.00
62942;BME280;49042;47.318;19.874;2022-11-15T05:59:56;100743.94;;;3.53;100.00
62942;BME280;49042;47.318;19.874;2022-11-15T06:03:15;100724.38;;;3.43;100.00
62942;BME280;49042;47.318;19.874;2022-11-15T06:06:17;100719.53;;;3.34;100.00
62942;BME280;49042;47.318;19.874;2022-11-15T06:09:18;100732.34;;;3.46;100.00
62942;BME280;49042;47.318;19.874;2022-11-15T06:12:20;100713.66;;;3.37;100.00
62942;BME280;49042;47.318;19.874;2022-11-15T06:15:22;100710.31;;;3.24;100.00
62942;BME280;49042;47.318;19.874;2022-11-15T06:18:36;100723.28;;;3.39;100.00
62942;BME280;49042;47.318;19.874;2022-11-15T06:21:37;100722.03;;;3.46;100.00
62942;BME280;49042;47.318;19.874;2022-11-15T06:24:51;100719.41;;;3.73;100.00
62942;BME280;49042;47.318;19.874;2022-11-15T06:28:05;100718.34;;;3.56;100.00
62942;BME280;49042;47.318;19.874;2022-11-15T06:31:19;100723.69;;;3.59;100.00
62942;BME280;49042;47.318;19.874;2022-11-15T06:34:21;100735.50;;;3.69;100.00
62942;BME280;49042;47.318;19.874;2022-11-15T06:37:22;100740.91;;;4.01;100.00
62942;BME280;49042;47.318;19.874;2022-11-15T06:40:37;100738.13;;;3.98;100.00
62942;BME280;49042;47.318;19.874;2022-11-15T06:43:51;100756.06;;;4.10;100.00
62942;BME280;49042;47.318;19.874;2022-11-15T06:46:53;100751.87;;;4.26;100.00
62942;BME280;49042;47.318;19.874;2022-11-15T06:49:55;100756.16;;;4.25;100.00
62942;BME280;49042;47.318;19.874;2022-11-15T06:53:08;100756.09;;;4.39;100.00
62942;BME280;49042;47.318;19.874;2022-11-15T06:56:22;100750.44;;;4.45;100.00
62942;BME280;49042;47.318;19.874;2022-11-15T06:59:37;100756.03;;;4.53;100.00
62942;BME280;49042;47.318;19.874;2022-11-15T07:02:50;100769.19;;;4.71;100.00
62942;BME280;49042;47.318;19.874;2022-11-15T07:06:04;100760.97;;;4.63;100.00
62942;BME280;49042;47.318;19.874;2022-11-15T07:09:18;100766.47;;;4.83;100.00
62942;BME280;49042;47.318;19.874;2022-11-15T07:12:32;100764.69;;;5.12;100.00
62942;BME280;49042;47.318;19.874;2022-11-15T07:15:45;100766.41;;;4.97;100.00
62942;BME280;49042;47.318;19.874;2022-11-15T07:18:47;100775.22;;;5.00;100.00
62942;BME280;49042;47.318;19.874;2022-11-15T07:22:00;100774.34;;;5.30;100.00
62942;BME280;49042;47.318;19.874;2022-11-15T07:25:14;100764.34;;;5.06;100.00
62942;BME280;49042;47.318;19.874;2022-11-15T07:28:16;100761.78;;;5.21;100.00
62942;BME280;49042;47.318;19.874;2022-11-15T07:31:29;100763.91;;;5.29;100.00
62942;BME280;49042;47.318;19.874;2022-11-15T07:34:42;100763.03;;;5.28;100.00
62942;BME280;49042;47.318;19.874;2022-11-15T07:37:44;100748.22;;;5.25;100.00
62942;BME280;49042;47.318;19.874;2022-11-15T07:40:46;100746.00;;;5.32;100.00
62942;BME280;49042;47.318;19.874;2022-11-15T07:43:51;100742.69;;;5.34;100.00
62942;BME280;49042;47.318;19.874;2022-11-15T07:46:53;100727.97;;;5.18;100.00
62942;BME280;49042;47.318;19.874;2022-11-15T07:49:55;100732.09;;;5.14;100.00
62942;BME280;49042;47.318;19.874;2022-11-15T07:53:09;100725.19;;;5.30;100.00
62942;BME280;49042;47.318;19.874;2022-11-15T07:56:12;100729.66;;;5.33;100.00
62942;BME280;49042;47.318;19.874;2022-11-15T07:59:13;100727.47;;;5.56;100.00
62942;BME280;49042;47.318;19.874;2022-11-15T08:02:15;100732.66;;;5.56;100.00
62942;BME280;49042;47.318;19.874;2022-11-15T08:05:19;100714.66;;;5.57;100.00
62942;BME280;49042;47.318;19.874;2022-11-15T08:08:21;100718.94;;;5.42;100.00
62942;BME280;49042;47.318;19.874;2022-11-15T08:11:22;100710.66;;;5.32;100.00
62942;BME280;49042;47.318;19.874;2022-11-15T08:14:24;100709.66;;;5.30;100.00
62942;BME280;49042;47.318;19.874;2022-11-15T08:17:26;100706.84;;;5.25;100.00
62942;BME280;49042;47.318;19.874;2022-11-15T08:20:28;100702.00;;;5.32;100.00
62942;BME280;49042;47.318;19.874;2022-11-15T08:23:33;100703.25;;;5.23;100.00
62942;BME280;49042;47.318;19.874;2022-11-15T08:26:35;100694.13;;;5.45;100.00
62942;BME280;49042;47.318;19.874;2022-11-15T08:29:37;100693.34;;;5.46;100.00
62942;BME280;49042;47.318;19.874;2022-11-15T08:32:39;100686.97;;;5.56;100.00
62942;BME280;49042;47.318;19.874;2022-11-15T08:35:41;100690.97;;;5.66;100.00
62942;BME280;49042;47.318;19.874;2022-11-15T08:38:43;100695.38;;;5.52;100.00
62942;BME280;49042;47.318;19.874;2022-11-15T08:41:45;100692.81;;;5.69;100.00
62942;BME280;49042;47.318;19.874;2022-11-15T08:44:46;100700.94;;;5.43;100.00
62942;BME280;49042;47.318;19.874;2022-11-15T08:47:49;100692.28;;;5.75;100.00
62942;BME280;49042;47.318;19.874;2022-11-15T08:50:55;100701.25;;;5.65;100.00
62942;BME280;49042;47.318;19.874;2022-11-15T08:53:57;100699.53;;;5.65;100.00
62942;BME280;49042;47.318;19.874;2022-11-15T08:56:59;100694.44;;;5.67;100.00
62942;BME280;49042;47.318;19.874;2022-11-15T09:00:01;100685.91;;;5.85;100.00
62942;BME280;49042;47.318;19.874;2022-11-15T09:03:06;100680.00;;;5.87;100.00
62942;BME280;49042;47.318;19.874;2022-11-15T09:06:08;100680.91;;;6.05;100.00
62942;BME280;49042;47.318;19.874;2022-11-15T09:09:10;100677.97;;;5.82;100.00
62942;BME280;49042;47.318;19.874;2022-11-15T09:12:12;100684.28;;;5.87;100.00
62942;BME280;49042;47.318;19.874;2022-11-15T09:15:15;100672.22;;;6.19;100.00
62942;BME280;49042;47.318;19.874;2022-11-15T09:18:17;100676.91;;;6.10;100.00
62942;BME280;49042;47.318;19.874;2022-11-15T09:21:18;100682.62;;;6.04;100.00
62942;BME280;49042;47.318;19.874;2022-11-15T09:24:20;100672.47;;;6.24;100.00
62942;BME280;49042;47.318;19.874;2022-11-15T09:27:22;100673.09;;;6.53;100.00
62942;BME280;49042;47.318;19.874;2022-11-15T09:30:25;100668.47;;;6.48;100.00
62942;BME280;49042;47.318;19.874;2022-11-15T09:33:27;100668.63;;;6.68;100.00
62942;BME280;49042;47.318;19.874;2022-11-15T09:36:29;100665.75;;;6.80;100.00
62942;BME280;49042;47.318;19.874;2022-11-15T09:39:31;100647.91;;;7.04;100.00
62942;BME280;49042;47.318;19.874;2022-11-15T09:43:01;100646.87;;;7.19;100.00
62942;BME280;49042;47.318;19.874;2022-11-15T09:46:23;100640.56;;;7.14;100.00
62942;BME280;49042;47.318;19.874;2022-11-15T09:49:28;100638.13;;;6.99;100.00
62942;BME280;49042;47.318;19.874;2022-11-15T09:52:30;100636.13;;;7.30;100.00
62942;BME280;49042;47.318;19.874;2022-11-15T09:55:40;100633.16;;;7.03;100.00
62942;BME280;49042;47.318;19.874;2022-11-15T10:05:24;100623.16;;;7.11;100.00
62942;BME280;49042;47.318;19.874;2022-11-15T10:11:56;100613.47;;;6.89;100.00
62942;BME280;49042;47.318;19.874;2022-11-15T10:15:03;100604.34;;;6.97;100.00
62942;BME280;49042;47.318;19.874;2022-11-15T10:21:45;100594.53;;;6.55;100.00
62942;BME280;49042;47.318;19.874;2022-11-15T10:25:00;100590.19;;;6.37;100.00
62942;BME280;49042;47.318;19.874;2022-11-15T10:28:28;100589.22;;;6.70;100.00
62942;BME280;49042;47.318;19.874;2022-11-15T10:31:30;100583.69;;;6.45;100.00
62942;BME280;49042;47.318;19.874;2022-11-15T10:34:35;100585.41;;;6.45;100.00
62942;BME280;49042;47.318;19.874;2022-11-15T10:37:37;100578.97;;;6.19;100.00
62942;BME280;49042;47.318;19.874;2022-11-15T10:40:40;100578.63;;;6.30;100.00
62942;BME280;49042;47.318;19.874;2022-11-15T10:43:42;100576.88;;;6.47;100.00
62942;BME280;49042;47.318;19.874;2022-11-15T10:46:47;100571.66;;;6.64;100.00
62942;BME280;49042;47.318;19.874;2022-11-15T10:50:02;100566.25;;;6.59;100.00
62942;BME280;49042;47.318;19.874;2022-11-15T10:53:18;100561.22;;;6.62;100.00
62942;BME280;49042;47.318;19.874;2022-11-15T10:56:23;100558.22;;;6.55;100.00
62942;BME280;49042;47.318;19.874;2022-11-15T10:59:28;100551.88;;;6.48;100.00
62942;BME280;49042;47.318;19.874;2022-11-15T11:02:40;100543.34;;;6.32;100.00
62942;BME280;49042;47.318;19.874;2022-11-15T11:05:43;100531.84;;;6.27;100.00
62942;BME280;49042;47.318;19.874;2022-11-15T11:08:57;100520.03;;;6.50;100.00
62942;BME280;49042;47.318;19.874;2022-11-15T11:12:00;100531.38;;;6.71;100.00
62942;BME280;49042;47.318;19.874;2022-11-15T11:15:10;100534.50;;;6.82;100.00
62942;BME280;49042;47.318;19.874;2022-11-15T11:18:25;100528.84;;;6.91;100.00
62942;BME280;49042;47.318;19.874;2022-11-15T11:38:27;100520.50;;;7.35;100.00
62942;BME280;49042;47.318;19.874;2022-11-15T11:48:23;100501.44;;;7.34;100.00
62942;BME280;49042;47.318;19.874;2022-11-15T11:51:32;100494.72;;;7.39;100.00
62942;BME280;49042;47.318;19.874;2022-11-15T12:01:14;100486.94;;;7.39;100.00
62942;BME280;49042;47.318;19.874;2022-11-15T12:04:34;100484.63;;;7.26;100.00
62942;BME280;49042;47.318;19.874;2022-11-15T12:07:39;100476.69;;;7.43;100.00
62942;BME280;49042;47.318;19.874;2022-11-15T12:10:45;100473.12;;;7.60;100.00
62942;BME280;49042;47.318;19.874;2022-11-15T12:13:55;100464.16;;;7.52;100.00
62942;BME280;49042;47.318;19.874;2022-11-15T12:16:58;100457.44;;;7.57;100.00
62942;BME280;49042;47.318;19.874;2022-11-15T12:20:14;100463.78;;;7.64;100.00
62942;BME280;49042;47.318;19.874;2022-11-15T12:23:21;100468.00;;;7.42;100.00
62942;BME280;49042;47.318;19.874;2022-11-15T12:26:33;100453.81;;;7.54;100.00
62942;BME280;49042;47.318;19.874;2022-11-15T12:29:39;100444.28;;;7.74;100.00
62942;BME280;49042;47.318;19.874;2022-11-15T12:33:47;100440.16;;;7.58;100.00
62942;BME280;49042;47.318;19.874;2022-11-15T12:36:42;100425.34;;;7.55;100.00
62942;BME280;49042;47.318;19.874;2022-11-15T12:46:20;100405.09;;;7.68;100.00
62942;BME280;49042;47.318;19.874;2022-11-15T12:52:24;100401.97;;;7.55;100.00
62942;BME280;49042;47.318;19.874;2022-11-15T12:55:32;100398.38;;;7.52;100.00
62942;BME280;49042;47.318;19.874;2022-11-15T13:04:54;100399.78;;;7.65;100.00
62942;BME280;49042;47.318;19.874;2022-11-15T13:07:58;100401.22;;;7.58;100.00
62942;BME280;49042;47.318;19.874;2022-11-15T13:14:48;100396.63;;;7.31;100.00
62942;BME280;49042;47.318;19.874;2022-11-15T13:17:55;100399.69;;;7.42;100.00
62942;BME280;49042;47.318;19.874;2022-11-15T13:20:57;100402.69;;;7.73;100.00
62942;BME280;49042;47.318;19.874;2022-11-15T13:24:03;100382.13;;;7.77;100.00
62942;BME280;49042;47.318;19.874;2022-11-15T13:27:18;100384.44;;;7.71;100.00
62942;BME280;49042;47.318;19.874;2022-11-15T13:30:23;100391.31;;;7.90;100.00
62942;BME280;49042;47.318;19.874;2022-11-15T13:36:36;100390.09;;;7.82;100.00
62942;BME280;49042;47.318;19.874;2022-11-15T13:39:38;100381.72;;;7.89;100.00
62942;BME280;49042;47.318;19.874;2022-11-15T13:42:40;100379.91;;;7.87;100.00
62942;BME280;49042;47.318;19.874;2022-11-15T13:46:07;100364.44;;;7.90;100.00
62942;BME280;49042;47.318;19.874;2022-11-15T13:49:09;100365.59;;;7.97;100.00
62942;BME280;49042;47.318;19.874;2022-11-15T13:52:15;100363.34;;;7.85;100.00
62942;BME280;49042;47.318;19.874;2022-11-15T13:55:21;100352.09;;;7.84;100.00
62942;BME280;49042;47.318;19.874;2022-11-15T13:58:24;100351.09;;;7.80;100.00
62942;BME280;49042;47.318;19.874;2022-11-15T14:01:28;100345.13;;;7.83;100.00
62942;BME280;49042;47.318;19.874;2022-11-15T14:04:32;100353.28;;;7.71;100.00
62942;BME280;49042;47.318;19.874;2022-11-15T14:07:35;100355.84;;;7.91;100.00
62942;BME280;49042;47.318;19.874;2022-11-15T14:10:44;100345.00;;;7.80;100.00
62942;BME280;49042;47.318;19.874;2022-11-15T14:14:14;100341.19;;;7.71;100.00
62942;BME280;49042;47.318;19.874;2022-11-15T14:17:32;100341.28;;;7.73;100.00
62942;BME280;49042;47.318;19.874;2022-11-15T14:20:36;100331.50;;;7.46;100.00
62942;BME280;49042;47.318;19.874;2022-11-15T14:23:39;100323.22;;;7.55;100.00
62942;BME280;49042;47.318;19.874;2022-11-15T14:26:41;100327.03;;;7.42;100.00
62942;BME280;49042;47.318;19.874;2022-11-15T14:29:43;100326.81;;;7.37;100.00
62942;BME280;49042;47.318;19.874;2022-11-15T14:32:47;100322.31;;;7.33;100.00
62942;BME280;49042;47.318;19.874;2022-11-15T14:35:52;100316.66;;;7.42;100.00
62942;BME280;49042;47.318;19.874;2022-11-15T14:38:54;100307.84;;;7.38;100.00
62942;BME280;49042;47.318;19.874;2022-11-15T14:41:56;100300.38;;;7.24;100.00
62942;BME280;49042;47.318;19.874;2022-11-15T14:44:58;100294.63;;;7.12;100.00
62942;BME280;49042;47.318;19.874;2022-11-15T14:47:59;100283.72;;;7.19;100.00
62942;BME280;49042;47.318;19.874;2022-11-15T14:51:01;100278.28;;;7.13;100.00
62942;BME280;49042;47.318;19.874;2022-11-15T14:54:02;100274.66;;;7.09;100.00
62942;BME280;49042;47.318;19.874;2022-11-15T14:57:04;100281.53;;;7.09;100.00
62942;BME280;49042;47.318;19.874;2022-11-15T15:00:07;100284.03;;;7.27;100.00
62942;BME280;49042;47.318;19.874;2022-11-15T15:03:10;100295.78;;;7.18;100.00
62942;BME280;49042;47.318;19.874;2022-11-15T15:06:11;100286.81;;;7.10;100.00
62942;BME280;49042;47.318;19.874;2022-11-15T15:09:18;100280.19;;;7.17;100.00
62942;BME280;49042;47.318;19.874;2022-11-15T15:12:22;100281.41;;;7.05;100.00
62942;BME280;49042;47.318;19.874;2022-11-15T15:15:27;100279.38;;;6.98;100.00
62942;BME280;49042;47.318;19.874;2022-11-15T15:18:31;100272.94;;;7.10;100.00
62942;BME280;49042;47.318;19.874;2022-11-15T15:21:34;100273.69;;;7.07;100.00
62942;BME280;49042;47.318;19.874;2022-11-15T15:24:38;100269.94;;;7.00;100.00
62942;BME280;49042;47.318;19.874;2022-11-15T15:27:39;100269.91;;;6.79;100.00
62942;BME280;49042;47.318;19.874;2022-11-15T15:30:41;100265.47;;;6.76;100.00
62942;BME280;49042;47.318;19.874;2022-11-15T15:33:43;100261.28;;;7.00;100.00
62942;BME280;49042;47.318;19.874;2022-11-15T15:36:45;100261.44;;;6.83;100.00
62942;BME280;49042;47.318;19.874;2022-11-15T15:39:46;100268.63;;;6.89;100.00
62942;BME280;49042;47.318;19.874;2022-11-15T15:42:48;100277.72;;;7.00;100.00
62942;BME280;49042;47.318;19.874;2022-11-15T15:45:50;100276.91;;;7.01;100.00
62942;BME280;49042;47.318;19.874;2022-11-15T15:48:52;100269.16;;;6.81;100.00
62942;BME280;49042;47.318;19.874;2022-11-15T15:51:53;100272.84;;;6.87;100.00
62942;BME280;49042;47.318;19.874;2022-11-15T15:54:55;100262.06;;;6.77;100.00
62942;BME280;49042;47.318;19.874;2022-11-15T15:57:57;100250.41;;;6.67;100.00
62942;BME280;49042;47.318;19.874;2022-11-15T16:00:58;100257.81;;;6.99;100.00
62942;BME280;49042;47.318;19.874;2022-11-15T16:04:00;100254.91;;;6.91;100.00
62942;BME280;49042;47.318;19.874;2022-11-15T16:07:02;100257.69;;;6.96;100.00
62942;BME280;49042;47.318;19.874;2022-11-15T16:10:25;100251.53;;;6.94;100.00
62942;BME280;49042;47.318;19.874;2022-11-15T16:13:27;100240.41;;;6.96;100.00
62942;BME280;49042;47.318;19.874;2022-11-15T16:16:28;100233.56;;;6.77;100.00
62942;BME280;49042;47.318;19.874;2022-11-15T16:19:30;100229.09;;;6.94;100.00
62942;BME280;49042;47.318;19.874;2022-11-15T16:22:31;100225.72;;;6.97;100.00
62942;BME280;49042;47.318;19.874;2022-11-15T16:25:38;100230.87;;;6.95;100.00
62942;BME280;49042;47.318;19.874;2022-11-15T16:28:41;100235.09;;;6.93;100.00
62942;BME280;49042;47.318;19.874;2022-11-15T16:31:42;100233.94;;;7.06;100.00
62942;BME280;49042;47.318;19.874;2022-11-15T16:34:44;100245.72;;;6.78;100.00
62942;BME280;49042;47.318;19.874;2022-11-15T16:37:49;100239.34;;;6.91;100.00
62942;BME280;49042;47.318;19.874;2022-11-15T16:40:51;100249.31;;;7.03;100.00
62942;BME280;49042;47.318;19.874;2022-11-15T16:43:53;100243.41;;;7.06;100.00
62942;BME280;49042;47.318;19.874;2022-11-15T16:46:54;100251.41;;;6.91;100.00
62942;BME280;49042;47.318;19.874;2022-11-15T16:49:56;100244.00;;;7.00;100.00
62942;BME280;49042;47.318;19.874;2022-11-15T16:52:58;100244.69;;;7.16;100.00
62942;BME280;49042;47.318;19.874;2022-11-15T16:56:00;100243.06;;;6.98;100.00
62942;BME280;49042;47.318;19.874;2022-11-15T16:59:02;100244.03;;;7.22;100.00
62942;BME280;49042;47.318;19.874;2022-11-15T17:02:10;100240.53;;;7.00;100.00
62942;BME280;49042;47.318;19.874;2022-11-15T17:05:13;100236.13;;;7.18;100.00
62942;BME280;49042;47.318;19.874;2022-11-15T17:08:20;100243.31;;;7.24;100.00
62942;BME280;49042;47.318;19.874;2022-11-15T17:11:22;100233.22;;;7.32;100.00
62942;BME280;49042;47.318;19.874;2022-11-15T17:14:24;100227.84;;;7.27;100.00
62942;BME280;49042;47.318;19.874;2022-11-15T17:17:27;100223.59;;;7.30;100.00
62942;BME280;49042;47.318;19.874;2022-11-15T17:20:32;100229.22;;;7.19;100.00
62942;BME280;49042;47.318;19.874;2022-11-15T17:23:33;100218.03;;;7.20;100.00